Hessle, United Kingdom
Current Conditions -  °F | °C
As of 8:20 AM on Sunday 26 Oct 2014 (Local Time) from EGNJ Reporting Station
Broken Clouds Broken Clouds  
Wind Chill: 54°   Ceiling: 3400
Heat Index: 54°   Visibility: 6mi
Dew Point: 50°   Wind: 18mph
Humidity: 88%   Direction: 190°S
Pressure: 30"   Gusts: NA
Location:  53.72°N, 0.43°W
Report Text: EGNJ 260720Z 19016KT 9999 BKN034 12/10 Q1016
Loading
Personal Weather Stations






























Interactive Weather Map
Tropical Storm Tracking
New forecast layout! Learn more

10-Day Weather Forecast

Advertisements
Track Severe Weather on mobile